Terminal Aerodrome Forecast
Issued by NWS

Home | Current Version | Previous Version | Text Only | Print | Product List | Glossary On
Versions: 1 2 3 4 5 6 7 8 9 10 11 12 13 14 15 16 17 18 19 20 21 22 23 24 25 26 27
842
FTAK31 PANC 291720
TAFADL
TAF
PADL 291720Z 2918/3018 07006KT P6SM VCSH OVC040
     FM292100 09010G18KT P6SM VCSH SCT035 BKN050
     FM300600 09009KT P6SM SCT050 BKN100
     FM301600 05012G18KT P6SM OVC045=

USA.gov is the U.S. government's official web portal to all federal, state and local government web resources and services.